createdAt,value
2018-02-20T00:01:45.493Z,16.15
2018-02-20T00:04:12.152Z,17.67
2018-02-20T00:06:38.905Z,17.37
2018-02-20T00:09:05.539Z,16.75
2018-02-20T00:11:32.215Z,17.27
2018-02-20T00:13:58.885Z,17.40
2018-02-20T00:16:25.546Z,17.23
2018-02-20T00:18:52.531Z,15.20
2018-02-20T00:21:23.185Z,16.85
2018-02-20T00:23:54.100Z,16.30
2018-02-20T00:26:20.770Z,16.80
2018-02-20T00:28:47.443Z,17.08
2018-02-20T00:31:14.772Z,15.27
2018-02-20T00:33:41.470Z,16.45
2018-02-20T00:36:08.190Z,17.52
2018-02-20T00:38:34.896Z,16.90
2018-02-20T00:41:06.058Z,17.67
2018-02-20T00:43:36.984Z,17.62
2018-02-20T00:46:03.639Z,19.87
2018-02-20T00:48:30.277Z,17.48
2018-02-20T00:51:01.237Z,16.70
2018-02-20T00:53:28.669Z,17.17
2018-02-20T00:55:55.434Z,15.75
2018-02-20T00:58:22.124Z,16.95
2018-02-20T01:00:48.780Z,15.15
2018-02-20T01:03:15.445Z,18.12
2018-02-20T01:05:42.099Z,16.95
2018-02-20T01:08:08.784Z,16.37
2018-02-20T01:10:36.073Z,17.27
2018-02-20T01:13:02.759Z,16.60
2018-02-20T01:15:29.414Z,18.23
2018-02-20T01:17:56.461Z,18.15
2018-02-20T01:20:23.134Z,17.70
2018-02-20T01:22:49.808Z,18.33
2018-02-20T01:25:20.763Z,18.83
2018-02-20T01:27:47.423Z,15.93
2018-02-20T01:30:14.146Z,18.20
2018-02-20T01:32:40.810Z,16.00
2018-02-20T01:35:07.469Z,17.98
2018-02-20T01:37:34.154Z,18.10
2018-02-20T01:40:00.839Z,18.10
2018-02-20T01:42:28.308Z,16.55
2018-02-20T01:44:59.454Z,15.70
2018-02-20T01:47:26.128Z,16.20
2018-02-20T01:49:52.853Z,18.15
2018-02-20T01:52:19.753Z,16.83
2018-02-20T01:54:50.523Z,15.90
2018-02-20T01:57:17.158Z,15.98
2018-02-20T01:59:43.871Z,17.40
2018-02-20T02:02:10.505Z,16.98
2018-02-20T02:04:37.201Z,17.70
2018-02-20T02:07:03.914Z,17.52
2018-02-20T02:09:34.674Z,17.60
2018-02-20T02:12:02.627Z,17.42
2018-02-20T02:14:29.288Z,16.70
2018-02-20T02:16:55.938Z,15.95
2018-02-20T02:19:22.584Z,16.10
2018-02-20T02:21:49.276Z,16.52
2018-02-20T02:24:15.923Z,17.35
2018-02-20T02:26:42.592Z,17.00
2018-02-20T02:29:09.290Z,16.60
2018-02-20T02:31:35.925Z,16.25
2018-02-20T02:34:06.257Z,17.67
2018-02-20T02:36:32.893Z,16.40
2018-02-20T02:39:00.271Z,15.57
2018-02-20T02:41:26.921Z,16.70
2018-02-20T02:43:53.620Z,17.23
2018-02-20T02:46:20.261Z,18.37
2018-02-20T02:48:50.808Z,15.43
2018-02-20T02:51:17.492Z,17.33
2018-02-20T02:53:45.315Z,15.63
2018-02-20T02:56:11.956Z,16.17
2018-02-20T02:58:39.811Z,17.10
2018-02-20T03:01:06.474Z,17.73
2018-02-20T03:03:33.117Z,15.63
2018-02-20T03:05:59.788Z,16.40
2018-02-20T03:08:26.437Z,17.08
2018-02-20T03:10:53.091Z,15.88
2018-02-20T03:13:19.921Z,16.80
2018-02-20T03:15:47.185Z,17.50
2018-02-20T03:18:17.601Z,18.00
2018-02-20T03:20:44.248Z,17.77
2018-02-20T03:23:11.814Z,15.85
2018-02-20T03:25:38.497Z,16.35
2018-02-20T03:28:05.191Z,16.65
2018-02-20T03:30:31.842Z,16.80
2018-02-20T03:32:58.484Z,17.42
2018-02-20T03:35:25.177Z,14.90
2018-02-20T03:37:51.819Z,15.32
2018-02-20T03:40:18.537Z,17.98
2018-02-20T03:42:45.246Z,16.00
2018-02-20T03:45:11.876Z,16.00
2018-02-20T03:47:39.881Z,15.75
2018-02-20T03:50:06.541Z,15.18
2018-02-20T03:52:33.212Z,15.27
2018-02-20T03:54:59.858Z,16.67
2018-02-20T03:57:27.296Z,16.12
2018-02-20T03:59:54.252Z,16.37
2018-02-20T04:02:20.987Z,16.77
2018-02-20T04:04:47.792Z,16.37
2018-02-20T04:07:14.468Z,18.08
2018-02-20T04:09:41.160Z,16.33
2018-02-20T04:12:07.884Z,15.20
2018-02-20T04:14:35.411Z,16.45
2018-02-20T04:17:06.049Z,16.52
2018-02-20T04:19:32.748Z,15.23
2018-02-20T04:22:00.108Z,15.50
2018-02-20T04:24:26.753Z,15.80
2018-02-20T04:26:53.429Z,15.38
2018-02-20T04:29:20.077Z,16.10
2018-02-20T04:31:46.752Z,17.42
2018-02-20T04:34:13.388Z,18.42
2018-02-20T04:36:40.836Z,17.58
2018-02-20T04:39:11.944Z,17.12
2018-02-20T04:41:38.710Z,18.02
2018-02-20T04:44:05.380Z,17.98
2018-02-20T04:46:32.064Z,15.68
2018-02-20T04:48:58.683Z,16.92
2018-02-20T04:51:25.325Z,15.80
2018-02-20T04:53:59.658Z,14.98
2018-02-20T04:56:26.369Z,16.55
2018-02-20T04:58:53.018Z,16.30
2018-02-20T05:01:20.184Z,17.55
2018-02-20T05:03:46.948Z,16.65
2018-02-20T05:06:13.744Z,17.00
2018-02-20T05:08:40.393Z,15.60
2018-02-20T05:11:07.113Z,16.42
2018-02-20T05:13:33.815Z,16.42
2018-02-20T05:16:00.461Z,16.00
2018-02-20T05:18:27.113Z,16.77
2018-02-20T05:20:53.751Z,16.23
2018-02-20T05:23:20.496Z,15.07
2018-02-20T05:25:47.120Z,15.02
2018-02-20T05:28:13.915Z,15.15
2018-02-20T05:30:41.448Z,16.90
2018-02-20T05:33:08.109Z,16.60
2018-02-20T05:35:34.740Z,16.05
2018-02-20T05:38:01.484Z,15.77
2018-02-20T05:40:28.988Z,16.85
2018-02-20T05:42:55.815Z,17.25
2018-02-20T05:45:22.478Z,16.35
2018-02-20T05:47:49.786Z,17.30
2018-02-20T05:50:16.534Z,16.85
2018-02-20T05:52:43.168Z,16.12
2018-02-20T05:55:09.816Z,16.00
2018-02-20T05:57:36.440Z,16.77
2018-02-20T06:00:03.141Z,16.60
2018-02-20T06:02:29.758Z,15.75
2018-02-20T06:04:56.406Z,16.33
2018-02-20T06:07:23.070Z,14.45
2018-02-20T06:09:49.721Z,16.75
2018-02-20T06:12:17.217Z,15.10
2018-02-20T06:14:43.855Z,17.83
2018-02-20T06:17:10.683Z,16.20
2018-02-20T06:19:37.343Z,16.98
2018-02-20T06:22:04.564Z,16.98
2018-02-20T06:24:31.273Z,14.75
2018-02-20T06:26:57.925Z,15.60
2018-02-20T06:29:24.680Z,16.95
2018-02-20T06:31:51.339Z,16.17
2018-02-20T06:34:18.052Z,16.92
2018-02-20T06:36:44.859Z,17.65
2018-02-20T06:39:11.507Z,17.52
2018-02-20T06:41:38.148Z,16.98
2018-02-20T06:44:04.764Z,16.08
2018-02-20T06:46:31.458Z,16.02
2018-02-20T06:48:58.084Z,17.60
2018-02-20T06:51:24.721Z,19.17
2018-02-20T06:53:55.395Z,19.15
2018-02-20T06:56:22.023Z,18.23
2018-02-20T06:58:48.680Z,20.00
2018-02-20T07:01:15.413Z,21.40
2018-02-20T07:03:42.088Z,18.85
2018-02-20T07:06:08.772Z,17.85
2018-02-20T07:08:35.409Z,18.20
2018-02-20T07:11:02.056Z,20.40
2018-02-20T07:13:28.698Z,18.48
2018-02-20T07:15:55.364Z,18.10
2018-02-20T07:18:22.059Z,18.45
2018-02-20T07:20:48.707Z,17.92
2018-02-20T07:23:15.365Z,18.23
2018-02-20T07:25:42.005Z,17.00
2018-02-20T07:28:08.652Z,18.77
2018-02-20T07:30:35.368Z,16.52
2018-02-20T07:33:02.821Z,19.62
2018-02-20T07:35:29.466Z,18.92
2018-02-20T07:37:56.104Z,19.05
2018-02-20T07:40:23.274Z,19.80
2018-02-20T07:42:49.908Z,20.23
2018-02-20T07:45:16.574Z,17.52
2018-02-20T07:47:43.201Z,17.90
2018-02-20T07:50:09.886Z,17.85
2018-02-20T07:52:36.525Z,19.17
2018-02-20T07:55:07.772Z,19.75
2018-02-20T07:57:34.444Z,19.62
2018-02-20T08:00:01.106Z,19.83
2018-02-20T08:02:27.792Z,20.30
2018-02-20T08:04:55.251Z,19.48
2018-02-20T08:07:21.906Z,18.25
2018-02-20T08:09:48.584Z,18.60
2018-02-20T08:12:19.438Z,19.77
2018-02-20T08:14:46.120Z,20.98
2018-02-20T08:17:13.596Z,20.02
2018-02-20T08:19:40.295Z,21.77
2018-02-20T08:22:06.971Z,20.77
2018-02-20T08:24:33.809Z,20.80
2018-02-20T08:27:04.681Z,21.73
2018-02-20T08:29:31.341Z,20.62
2018-02-20T08:31:58.012Z,23.35
2018-02-20T08:34:24.653Z,22.20
2018-02-20T08:36:52.048Z,21.60
2018-02-20T08:39:18.719Z,21.27
2018-02-20T08:41:46.256Z,19.87
2018-02-20T08:44:12.902Z,21.70
2018-02-20T08:46:39.536Z,22.35
2018-02-20T08:49:10.292Z,24.20
2018-02-20T08:51:40.892Z,21.00
2018-02-20T08:54:07.536Z,21.30
2018-02-20T08:56:34.868Z,23.35
2018-02-20T08:59:02.201Z,22.13
2018-02-20T09:01:28.842Z,21.45
2018-02-20T09:03:57.387Z,23.67
2018-02-20T09:06:24.104Z,21.77
2018-02-20T09:08:50.763Z,23.10
2018-02-20T09:11:17.449Z,25.48
2018-02-20T09:13:44.217Z,24.45
2018-02-20T09:16:10.872Z,23.15
2018-02-20T09:18:37.641Z,23.92
2018-02-20T09:21:04.324Z,24.90
2018-02-20T09:23:34.960Z,24.05
2018-02-20T09:26:05.744Z,22.75
2018-02-20T09:28:32.405Z,24.40
2018-02-20T09:31:03.174Z,23.62
2018-02-20T09:33:30.702Z,23.85
2018-02-20T09:36:01.488Z,23.75
2018-02-20T09:38:28.137Z,24.02
2018-02-20T09:40:54.778Z,29.52
2018-02-20T09:43:21.548Z,25.10
2018-02-20T09:45:48.256Z,27.50
2018-02-20T09:48:15.002Z,26.67
2018-02-20T09:50:41.663Z,27.92
2018-02-20T09:53:08.332Z,28.80
2018-02-20T09:55:34.988Z,31.77
2018-02-20T09:58:01.740Z,29.40
2018-02-20T10:00:36.147Z,31.70
2018-02-20T10:03:02.848Z,29.30
2018-02-20T10:05:29.497Z,32.57
2018-02-20T10:07:56.175Z,33.57
2018-02-20T10:10:22.836Z,31.73
2018-02-20T10:12:49.525Z,32.80
2018-02-20T10:15:16.201Z,32.83
2018-02-20T10:17:42.957Z,32.37
2018-02-20T10:20:10.040Z,32.93
2018-02-20T10:22:36.761Z,32.57
2018-02-20T10:25:03.430Z,35.13
2018-02-20T10:27:36.282Z,34.37
2018-02-20T10:30:02.980Z,33.77
2018-02-20T10:32:29.656Z,34.20
2018-02-20T10:34:56.317Z,33.70
2018-02-20T10:37:22.981Z,32.80
2018-02-20T10:39:49.792Z,33.90
2018-02-20T10:42:16.474Z,34.00
2018-02-20T10:44:43.173Z,33.88
2018-02-20T10:47:09.811Z,31.33
2018-02-20T10:49:36.592Z,30.58
2018-02-20T10:52:03.312Z,30.50
2018-02-20T10:54:29.956Z,30.02
2018-02-20T10:56:56.618Z,29.80
2018-02-20T10:59:23.308Z,29.52
2018-02-20T11:01:49.988Z,26.08
2018-02-20T11:04:16.719Z,25.60
2018-02-20T11:06:43.388Z,28.20
2018-02-20T11:09:10.083Z,25.50
2018-02-20T11:11:36.772Z,25.05
2018-02-20T11:14:03.393Z,25.15
2018-02-20T11:16:30.059Z,25.35
2018-02-20T11:18:56.717Z,24.05
2018-02-20T11:21:23.366Z,21.95
2018-02-20T11:23:50.032Z,22.50
2018-02-20T11:26:16.723Z,22.87
2018-02-20T11:28:43.504Z,22.95
2018-02-20T11:31:10.223Z,23.33
2018-02-20T11:33:36.848Z,23.60
2018-02-20T11:36:07.232Z,23.95
2018-02-20T11:38:33.870Z,24.70
2018-02-20T11:41:00.512Z,25.60
2018-02-20T11:43:27.152Z,21.80
2018-02-20T11:45:53.777Z,22.08
2018-02-20T11:48:24.174Z,23.12
2018-02-20T11:50:50.855Z,23.50
2018-02-20T11:53:17.516Z,22.00
2018-02-20T11:55:44.136Z,19.77
2018-02-20T11:58:11.483Z,20.48
2018-02-20T12:00:38.157Z,19.12
2018-02-20T12:03:04.899Z,20.85
2018-02-20T12:05:33.371Z,19.08
2018-02-20T12:08:00.040Z,20.05
2018-02-20T12:10:26.715Z,20.65
2018-02-20T12:12:57.510Z,20.52
2018-02-20T12:15:24.904Z,18.90
2018-02-20T12:17:52.349Z,22.70
2018-02-20T12:20:19.065Z,22.58
2018-02-20T12:22:45.652Z,20.08
2018-02-20T12:25:12.363Z,21.70
2018-02-20T12:27:39.036Z,20.58
2018-02-20T12:30:05.752Z,20.45
2018-02-20T12:32:36.641Z,19.25
2018-02-20T12:35:03.222Z,20.65
2018-02-20T12:37:30.054Z,19.85
2018-02-20T12:39:56.699Z,19.40
2018-02-20T12:42:23.380Z,21.12
2018-02-20T12:44:50.876Z,20.02
2018-02-20T12:47:17.540Z,20.67
2018-02-20T12:49:50.418Z,19.42
2018-02-20T12:52:17.126Z,18.95
2018-02-20T12:54:43.788Z,21.10
2018-02-20T12:57:14.387Z,19.92
2018-02-20T12:59:41.072Z,18.75
2018-02-20T13:02:07.703Z,19.25
2018-02-20T13:04:34.349Z,18.80
2018-02-20T13:07:01.013Z,18.33
2018-02-20T13:09:27.642Z,19.50
2018-02-20T13:11:54.415Z,18.37
2018-02-20T13:14:21.121Z,17.65
2018-02-20T13:16:47.775Z,18.25
2018-02-20T13:19:14.430Z,20.20
2018-02-20T13:21:41.135Z,19.15
2018-02-20T13:24:07.869Z,19.83
2018-02-20T13:26:34.531Z,19.98
2018-02-20T13:29:01.576Z,21.08
2018-02-20T13:31:28.473Z,22.27
2018-02-20T13:33:55.157Z,23.33
2018-02-20T13:36:21.811Z,20.65
2018-02-20T13:38:48.450Z,21.83
2018-02-20T13:41:15.116Z,20.08
2018-02-20T13:43:41.756Z,20.88
2018-02-20T13:46:08.448Z,21.08
2018-02-20T13:48:35.090Z,22.70
2018-02-20T13:51:01.804Z,20.52
2018-02-20T13:53:28.437Z,19.77
2018-02-20T13:55:55.098Z,21.45
2018-02-20T13:58:21.796Z,21.10
2018-02-20T14:00:48.447Z,21.35
2018-02-20T14:03:15.134Z,20.17
2018-02-20T14:05:41.872Z,19.25
2018-02-20T14:08:08.983Z,20.52
2018-02-20T14:10:35.620Z,19.48
2018-02-20T14:13:02.267Z,19.67
2018-02-20T14:15:28.928Z,18.73
2018-02-20T14:17:55.616Z,20.12
2018-02-20T14:20:22.285Z,19.27
2018-02-20T14:22:49.032Z,19.23
2018-02-20T14:25:15.680Z,20.48
2018-02-20T14:27:42.311Z,19.90
2018-02-20T14:30:08.964Z,20.42
2018-02-20T14:32:35.584Z,19.65
2018-02-20T14:35:02.236Z,22.25
2018-02-20T14:37:28.859Z,20.33
2018-02-20T14:39:59.414Z,18.40
2018-02-20T14:42:26.077Z,19.92
2018-02-20T14:44:52.779Z,20.95
2018-02-20T14:47:20.157Z,19.85
2018-02-20T14:49:46.832Z,21.33
2018-02-20T14:52:13.504Z,21.10
2018-02-20T14:54:40.150Z,19.85
2018-02-20T14:57:06.835Z,21.67
2018-02-20T14:59:33.498Z,19.77
2018-02-20T15:02:00.158Z,19.85
2018-02-20T15:04:26.803Z,18.95
2018-02-20T15:06:53.460Z,18.75
2018-02-20T15:09:20.102Z,19.42
2018-02-20T15:11:46.754Z,19.05
2018-02-20T15:14:13.489Z,18.85
2018-02-20T15:16:40.144Z,19.08
2018-02-20T15:19:06.787Z,21.67
2018-02-20T15:21:33.532Z,20.67
2018-02-20T15:24:00.238Z,17.77
2018-02-20T15:26:26.893Z,17.92
2018-02-20T15:28:53.541Z,19.08
2018-02-20T15:31:20.180Z,19.33
2018-02-20T15:33:46.856Z,19.70
2018-02-20T15:36:13.565Z,20.42
2018-02-20T15:38:40.566Z,19.60
2018-02-20T15:41:08.145Z,19.50
2018-02-20T15:43:34.882Z,19.15
2018-02-20T15:46:01.545Z,18.48
2018-02-20T15:48:28.791Z,20.12
2018-02-20T15:50:55.435Z,21.37
2018-02-20T15:53:22.959Z,19.70
2018-02-20T15:55:50.560Z,19.87
2018-02-20T15:58:17.188Z,22.73
2018-02-20T16:00:43.874Z,19.55
2018-02-20T16:03:11.390Z,19.58
2018-02-20T16:05:38.059Z,21.98
2018-02-20T16:08:04.744Z,21.62
2018-02-20T16:10:31.543Z,24.83
2018-02-20T16:12:58.281Z,23.55
2018-02-20T16:15:24.984Z,23.40
2018-02-20T16:17:51.652Z,24.67
2018-02-20T16:20:18.305Z,22.77
2018-02-20T16:22:44.980Z,24.40
2018-02-20T16:25:11.681Z,23.67
2018-02-20T16:27:38.342Z,23.48
2018-02-20T16:30:05.082Z,23.92
2018-02-20T16:32:31.896Z,24.15
2018-02-20T16:34:58.870Z,24.33
2018-02-20T16:37:25.568Z,23.87
2018-02-20T16:39:52.270Z,23.45
2018-02-20T16:42:19.615Z,23.42
2018-02-20T16:44:47.070Z,21.92
2018-02-20T16:47:13.709Z,22.48
2018-02-20T16:49:40.389Z,25.08
2018-02-20T16:52:10.921Z,23.92
2018-02-20T16:54:37.593Z,21.40
2018-02-20T16:57:04.376Z,23.52
2018-02-20T16:59:31.084Z,22.67
2018-02-20T17:01:57.740Z,24.65
2018-02-20T17:04:24.441Z,22.90
2018-02-20T17:06:51.160Z,22.45
2018-02-20T17:09:17.853Z,24.73
2018-02-20T17:11:44.700Z,24.08
2018-02-20T17:14:11.360Z,24.23
2018-02-20T17:16:38.085Z,23.75
2018-02-20T17:19:04.743Z,24.17
2018-02-20T17:21:31.621Z,23.40
2018-02-20T17:23:58.331Z,23.05
2018-02-20T17:26:25.029Z,24.87
2018-02-20T17:28:56.246Z,25.20
2018-02-20T17:31:23.033Z,25.50
2018-02-20T17:33:49.962Z,24.30
2018-02-20T17:36:16.679Z,25.80
2018-02-20T17:38:43.400Z,25.00
2018-02-20T17:41:10.070Z,25.15
2018-02-20T17:43:37.612Z,26.15
2018-02-20T17:46:04.319Z,25.90
2018-02-20T17:48:35.260Z,26.52
2018-02-20T17:51:01.982Z,27.50
2018-02-20T17:53:28.749Z,28.38
2018-02-20T17:55:55.435Z,24.15
2018-02-20T17:58:22.137Z,28.17
2018-02-20T18:00:49.721Z,27.62
2018-02-20T18:03:16.540Z,27.35
2018-02-20T18:05:43.225Z,27.50
2018-02-20T18:08:14.324Z,28.70
2018-02-20T18:10:41.744Z,28.35
2018-02-20T18:13:08.455Z,29.60
2018-02-20T18:15:35.167Z,30.62
2018-02-20T18:18:04.186Z,29.83
2018-02-20T18:20:31.049Z,29.08
2018-02-20T18:23:14.213Z,29.30
2018-02-20T18:25:43.361Z,27.52
2018-02-20T18:28:12.082Z,28.05
2018-02-20T18:30:43.571Z,27.00
2018-02-20T18:33:14.673Z,27.23
2018-02-20T18:35:44.502Z,28.58
2018-02-20T18:38:17.802Z,29.35
2018-02-20T18:40:45.490Z,29.52
2018-02-20T18:43:12.381Z,30.83
2018-02-20T18:45:39.244Z,32.05
2018-02-20T18:48:07.434Z,32.17
2018-02-20T18:50:37.469Z,30.75
2018-02-20T18:53:10.262Z,31.70
2018-02-20T18:55:37.853Z,28.83
2018-02-20T18:58:04.794Z,32.45
2018-02-20T19:10:17.570Z,27.13
2018-02-20T19:12:46.898Z,28.87
2018-02-20T19:15:17.075Z,28.17
2018-02-20T19:17:45.985Z,30.17
2018-02-20T19:20:16.966Z,28.60
2018-02-20T19:22:50.696Z,29.33
2018-02-20T19:25:21.652Z,30.30
2018-02-20T19:27:53.306Z,30.12
2018-02-20T19:30:28.316Z,33.08
2018-02-20T19:32:55.685Z,29.63
2018-02-20T19:35:26.053Z,33.15
2018-02-20T19:37:53.095Z,30.15
2018-02-20T19:40:20.272Z,27.58
2018-02-20T19:42:47.138Z,31.12
2018-02-20T19:45:20.666Z,30.75
2018-02-20T19:47:54.361Z,30.55
2018-02-20T19:50:25.783Z,26.85
2018-02-20T19:52:59.459Z,31.05
2018-02-20T19:55:27.416Z,30.58
2018-02-20T19:57:55.124Z,30.67
2018-02-20T20:00:26.625Z,29.52
2018-02-20T20:02:58.932Z,31.05
2018-02-20T20:05:29.570Z,30.52
2018-02-20T20:08:01.592Z,28.12
2018-02-20T20:10:37.278Z,32.03
2018-02-20T20:13:05.021Z,27.70
2018-02-20T20:15:32.735Z,28.58
2018-02-20T20:17:59.780Z,29.35
2018-02-20T20:20:37.008Z,28.50
2018-02-20T20:22:58.243Z,28.52
2018-02-20T20:25:26.583Z,27.58
2018-02-20T20:27:53.596Z,29.77
2018-02-20T20:30:30.027Z,29.35
2018-02-20T20:32:57.552Z,28.60
2018-02-20T20:35:30.842Z,30.52
2018-02-20T20:38:04.905Z,29.73
2018-02-20T20:40:38.034Z,30.50
2018-02-20T20:43:05.602Z,27.90
2018-02-20T20:55:19.665Z,25.90
2018-02-20T20:57:47.010Z,30.08
2018-02-20T21:00:18.025Z,29.63
2018-02-20T21:02:44.764Z,31.15
2018-02-20T21:05:11.555Z,31.62
2018-02-20T21:07:42.507Z,29.17
2018-02-20T21:10:09.332Z,30.05
2018-02-20T21:12:41.914Z,29.85
2018-02-20T21:15:08.647Z,29.42
2018-02-20T21:17:35.859Z,33.63
2018-02-20T21:20:08.366Z,30.20
2018-02-20T21:22:35.924Z,28.10
2018-02-20T21:25:04.320Z,32.95
2018-02-20T21:27:33.163Z,29.98
2018-02-20T21:30:01.246Z,32.22
2018-02-20T21:32:34.308Z,32.40
2018-02-20T21:35:07.031Z,32.63
2018-02-20T21:37:42.877Z,33.10
2018-02-20T21:40:09.612Z,31.40
2018-02-20T21:42:46.120Z,30.42
2018-02-20T21:45:17.112Z,29.50
2018-02-20T21:47:52.036Z,28.50
2018-02-20T21:50:20.108Z,30.30
2018-02-20T21:52:48.847Z,28.75
2018-02-20T22:05:02.160Z,26.50
2018-02-20T22:07:28.848Z,28.12
2018-02-20T22:09:55.537Z,30.12
2018-02-20T22:12:22.267Z,28.85
2018-02-20T22:14:58.123Z,29.63
2018-02-20T22:17:24.975Z,31.05
2018-02-20T22:19:52.271Z,29.45
2018-02-20T22:22:23.431Z,30.08
2018-02-20T22:24:54.485Z,29.10
2018-02-20T22:27:23.577Z,29.90
2018-02-20T22:29:51.954Z,29.05
2018-02-20T22:32:19.391Z,28.83
2018-02-20T22:34:49.824Z,31.17
2018-02-20T22:37:22.261Z,32.88
2018-02-20T22:39:52.488Z,29.55
2018-02-20T22:42:19.975Z,33.10
2018-02-20T22:44:46.988Z,31.48
2018-02-20T22:47:13.789Z,34.45
2018-02-20T22:49:55.866Z,34.70
2018-02-20T22:52:28.116Z,30.85
2018-02-20T22:54:58.857Z,31.60
2018-02-20T22:57:25.643Z,34.20
2018-02-20T22:59:55.149Z,32.95
2018-02-20T23:02:22.186Z,34.67
2018-02-20T23:04:48.924Z,31.73
2018-02-20T23:07:15.585Z,35.20
2018-02-20T23:09:50.920Z,31.92
2018-02-20T23:12:17.916Z,34.47
2018-02-20T23:14:46.064Z,33.15
2018-02-20T23:17:19.082Z,36.70
2018-02-20T23:19:45.767Z,34.42
2018-02-20T23:22:15.225Z,35.03
2018-02-20T23:24:42.737Z,34.13
2018-02-20T23:27:15.257Z,36.70
2018-02-20T23:29:41.945Z,35.25
2018-02-20T23:32:12.926Z,37.95
2018-02-20T23:34:42.439Z,34.20
2018-02-20T23:37:18.102Z,32.97
2018-02-20T23:39:44.791Z,34.65
2018-02-20T23:42:12.127Z,34.55
2018-02-20T23:44:40.665Z,38.08
2018-02-20T23:47:07.400Z,35.17
2018-02-20T23:49:34.512Z,35.08
2018-02-20T23:52:01.283Z,35.33
2018-02-20T23:54:28.081Z,35.35
2018-02-20T23:56:54.901Z,36.28
2018-02-20T23:59:35.564Z,37.83
